sensor_id;sensor_type;location;lat;lon;timestamp;temperature;humidity
2955;DHT22;1487;51.470;6.938;2022-11-18T00:01:45;9.50;99.90
2955;DHT22;1487;51.470;6.938;2022-11-18T00:04:12;9.50;99.90
2955;DHT22;1487;51.470;6.938;2022-11-18T00:06:40;9.50;99.90
2955;DHT22;1487;51.470;6.938;2022-11-18T00:09:07;9.60;99.90
2955;DHT22;1487;51.470;6.938;2022-11-18T00:11:34;9.60;99.90
2955;DHT22;1487;51.470;6.938;2022-11-18T00:14:20;9.60;99.90
2955;DHT22;1487;51.470;6.938;2022-11-18T00:16:50;9.60;99.90
2955;DHT22;1487;51.470;6.938;2022-11-18T00:19:17;9.60;99.90
2955;DHT22;1487;51.470;6.938;2022-11-18T00:21:46;9.70;99.90
2955;DHT22;1487;51.470;6.938;2022-11-18T00:24:12;9.70;99.90
2955;DHT22;1487;51.470;6.938;2022-11-18T00:26:39;9.70;99.90
2955;DHT22;1487;51.470;6.938;2022-11-18T00:29:08;9.70;99.90
2955;DHT22;1487;51.470;6.938;2022-11-18T00:31:35;9.70;99.90
2955;DHT22;1487;51.470;6.938;2022-11-18T00:34:02;9.80;99.90
2955;DHT22;1487;51.470;6.938;2022-11-18T00:36:29;9.80;99.90
2955;DHT22;1487;51.470;6.938;2022-11-18T00:38:57;9.90;99.90
2955;DHT22;1487;51.470;6.938;2022-11-18T00:41:24;9.90;99.90
2955;DHT22;1487;51.470;6.938;2022-11-18T00:44:11;9.90;99.90
2955;DHT22;1487;51.470;6.938;2022-11-18T00:46:37;9.90;99.90
2955;DHT22;1487;51.470;6.938;2022-11-18T00:49:04;9.80;99.90
2955;DHT22;1487;51.470;6.938;2022-11-18T00:51:30;9.80;99.90
2955;DHT22;1487;51.470;6.938;2022-11-18T00:53:58;9.80;99.90
2955;DHT22;1487;51.470;6.938;2022-11-18T00:56:25;9.70;99.90
2955;DHT22;1487;51.470;6.938;2022-11-18T00:58:52;9.70;99.90
2955;DHT22;1487;51.470;6.938;2022-11-18T01:01:19;9.60;99.90
2955;DHT22;1487;51.470;6.938;2022-11-18T01:03:46;9.50;99.90
2955;DHT22;1487;51.470;6.938;2022-11-18T01:06:12;9.50;99.90
2955;DHT22;1487;51.470;6.938;2022-11-18T01:08:39;9.50;99.90
2955;DHT22;1487;51.470;6.938;2022-11-18T01:11:08;9.50;99.90
2955;DHT22;1487;51.470;6.938;2022-11-18T01:14:03;9.50;99.90
2955;DHT22;1487;51.470;6.938;2022-11-18T01:16:30;9.50;99.90
2955;DHT22;1487;51.470;6.938;2022-11-18T01:18:57;9.50;99.90
2955;DHT22;1487;51.470;6.938;2022-11-18T01:21:24;9.50;99.90
2955;DHT22;1487;51.470;6.938;2022-11-18T01:23:51;9.50;99.90
2955;DHT22;1487;51.470;6.938;2022-11-18T01:26:19;9.50;99.90
2955;DHT22;1487;51.470;6.938;2022-11-18T01:28:46;9.50;99.90
2955;DHT22;1487;51.470;6.938;2022-11-18T01:31:14;9.50;99.90
2955;DHT22;1487;51.470;6.938;2022-11-18T01:33:41;9.50;99.90
2955;DHT22;1487;51.470;6.938;2022-11-18T01:36:16;9.50;99.90
2955;DHT22;1487;51.470;6.938;2022-11-18T01:38:43;9.40;99.90
2955;DHT22;1487;51.470;6.938;2022-11-18T01:41:10;9.40;99.90
2955;DHT22;1487;51.470;6.938;2022-11-18T01:43:51;9.30;99.90
2955;DHT22;1487;51.470;6.938;2022-11-18T01:46:20;9.30;99.90
2955;DHT22;1487;51.470;6.938;2022-11-18T01:48:51;9.40;99.90
2955;DHT22;1487;51.470;6.938;2022-11-18T01:51:22;9.40;99.90
2955;DHT22;1487;51.470;6.938;2022-11-18T01:53:53;9.30;99.90
2955;DHT22;1487;51.470;6.938;2022-11-18T01:56:32;9.30;99.90
2955;DHT22;1487;51.470;6.938;2022-11-18T01:59:05;9.40;99.90
2955;DHT22;1487;51.470;6.938;2022-11-18T02:01:33;9.40;99.90
2955;DHT22;1487;51.470;6.938;2022-11-18T02:04:00;9.40;99.90
2955;DHT22;1487;51.470;6.938;2022-11-18T02:06:26;9.40;99.90
2955;DHT22;1487;51.470;6.938;2022-11-18T02:08:54;9.30;99.90
2955;DHT22;1487;51.470;6.938;2022-11-18T02:11:21;9.30;99.90
2955;DHT22;1487;51.470;6.938;2022-11-18T02:14:09;9.30;99.90
2955;DHT22;1487;51.470;6.938;2022-11-18T02:16:46;9.30;99.90
2955;DHT22;1487;51.470;6.938;2022-11-18T02:19:39;9.30;99.90
2955;DHT22;1487;51.470;6.938;2022-11-18T02:22:24;9.30;99.90
2955;DHT22;1487;51.470;6.938;2022-11-18T02:24:59;9.30;99.90
2955;DHT22;1487;51.470;6.938;2022-11-18T02:27:50;9.30;99.90
2955;DHT22;1487;51.470;6.938;2022-11-18T02:30:23;9.30;99.90
2955;DHT22;1487;51.470;6.938;2022-11-18T02:32:55;9.40;99.90
2955;DHT22;1487;51.470;6.938;2022-11-18T02:35:27;9.30;99.90
2955;DHT22;1487;51.470;6.938;2022-11-18T02:37:58;9.40;99.90
2955;DHT22;1487;51.470;6.938;2022-11-18T02:40:29;9.40;99.90
2955;DHT22;1487;51.470;6.938;2022-11-18T02:43:00;9.40;99.90
2955;DHT22;1487;51.470;6.938;2022-11-18T02:45:29;9.40;99.90
2955;DHT22;1487;51.470;6.938;2022-11-18T02:48:00;9.40;99.90
2955;DHT22;1487;51.470;6.938;2022-11-18T02:50:29;9.50;99.90
2955;DHT22;1487;51.470;6.938;2022-11-18T02:52:59;9.50;99.90
2955;DHT22;1487;51.470;6.938;2022-11-18T02:55:28;9.50;99.90
2955;DHT22;1487;51.470;6.938;2022-11-18T02:57:56;9.50;99.90
2955;DHT22;1487;51.470;6.938;2022-11-18T03:00:23;9.50;99.90
2955;DHT22;1487;51.470;6.938;2022-11-18T03:02:52;9.40;99.90
2955;DHT22;1487;51.470;6.938;2022-11-18T03:05:24;9.50;99.90
2955;DHT22;1487;51.470;6.938;2022-11-18T03:07:55;9.40;99.90
2955;DHT22;1487;51.470;6.938;2022-11-18T03:10:24;9.40;99.90
2955;DHT22;1487;51.470;6.938;2022-11-18T03:13:01;9.40;99.90
2955;DHT22;1487;51.470;6.938;2022-11-18T03:15:35;9.40;99.90
2955;DHT22;1487;51.470;6.938;2022-11-18T03:18:14;9.40;99.90
2955;DHT22;1487;51.470;6.938;2022-11-18T03:20:47;9.40;99.90
2955;DHT22;1487;51.470;6.938;2022-11-18T03:23:21;9.40;99.90
2955;DHT22;1487;51.470;6.938;2022-11-18T03:25:53;9.40;99.90
2955;DHT22;1487;51.470;6.938;2022-11-18T03:28:26;9.40;99.90
2955;DHT22;1487;51.470;6.938;2022-11-18T03:30:58;9.40;99.90
2955;DHT22;1487;51.470;6.938;2022-11-18T03:33:32;9.40;99.90
2955;DHT22;1487;51.470;6.938;2022-11-18T03:36:03;9.40;99.90
2955;DHT22;1487;51.470;6.938;2022-11-18T03:38:34;9.50;99.90
2955;DHT22;1487;51.470;6.938;2022-11-18T03:41:04;9.40;99.90
2955;DHT22;1487;51.470;6.938;2022-11-18T03:43:35;9.40;99.90
2955;DHT22;1487;51.470;6.938;2022-11-18T03:46:06;9.40;99.90
2955;DHT22;1487;51.470;6.938;2022-11-18T03:48:39;9.40;99.90
2955;DHT22;1487;51.470;6.938;2022-11-18T03:51:09;9.40;99.90
2955;DHT22;1487;51.470;6.938;2022-11-18T03:53:39;9.40;99.90
2955;DHT22;1487;51.470;6.938;2022-11-18T03:56:10;9.40;99.90
2955;DHT22;1487;51.470;6.938;2022-11-18T03:58:41;9.40;99.90
2955;DHT22;1487;51.470;6.938;2022-11-18T04:01:15;9.50;99.90
2955;DHT22;1487;51.470;6.938;2022-11-18T04:03:44;9.50;99.90
2955;DHT22;1487;51.470;6.938;2022-11-18T04:06:17;9.50;99.90
2955;DHT22;1487;51.470;6.938;2022-11-18T04:08:49;9.50;99.90
2955;DHT22;1487;51.470;6.938;2022-11-18T04:11:22;9.50;99.90
2955;DHT22;1487;51.470;6.938;2022-11-18T04:14:09;9.50;99.90
2955;DHT22;1487;51.470;6.938;2022-11-18T04:16:39;9.40;99.90
2955;DHT22;1487;51.470;6.938;2022-11-18T04:19:07;9.50;99.90
2955;DHT22;1487;51.470;6.938;2022-11-18T04:21:34;9.50;99.90
2955;DHT22;1487;51.470;6.938;2022-11-18T04:24:01;9.50;99.90
2955;DHT22;1487;51.470;6.938;2022-11-18T04:26:28;9.50;99.90
2955;DHT22;1487;51.470;6.938;2022-11-18T04:28:56;9.50;99.90
2955;DHT22;1487;51.470;6.938;2022-11-18T04:31:22;9.50;99.90
2955;DHT22;1487;51.470;6.938;2022-11-18T04:33:49;9.50;99.90
2955;DHT22;1487;51.470;6.938;2022-11-18T04:36:17;9.40;99.90
2955;DHT22;1487;51.470;6.938;2022-11-18T04:38:44;9.40;99.90
2955;DHT22;1487;51.470;6.938;2022-11-18T04:41:11;9.40;99.90
2955;DHT22;1487;51.470;6.938;2022-11-18T04:43:38;9.40;99.90
2955;DHT22;1487;51.470;6.938;2022-11-18T04:46:05;9.30;99.90
2955;DHT22;1487;51.470;6.938;2022-11-18T04:48:32;9.30;99.90
2955;DHT22;1487;51.470;6.938;2022-11-18T04:51:02;9.30;99.90
2955;DHT22;1487;51.470;6.938;2022-11-18T04:53:30;9.20;99.90
2955;DHT22;1487;51.470;6.938;2022-11-18T04:56:03;9.20;99.90
2955;DHT22;1487;51.470;6.938;2022-11-18T04:58:31;9.10;99.90
2955;DHT22;1487;51.470;6.938;2022-11-18T05:00:57;9.00;99.90
2955;DHT22;1487;51.470;6.938;2022-11-18T05:03:24;9.00;99.90
2955;DHT22;1487;51.470;6.938;2022-11-18T05:05:51;9.00;99.90
2955;DHT22;1487;51.470;6.938;2022-11-18T05:08:18;9.00;99.90
2955;DHT22;1487;51.470;6.938;2022-11-18T05:10:46;9.00;99.90
2955;DHT22;1487;51.470;6.938;2022-11-18T05:13:13;9.00;99.90
2955;DHT22;1487;51.470;6.938;2022-11-18T05:15:39;9.00;99.90
2955;DHT22;1487;51.470;6.938;2022-11-18T05:18:05;9.10;99.90
2955;DHT22;1487;51.470;6.938;2022-11-18T05:20:36;9.10;99.90
2955;DHT22;1487;51.470;6.938;2022-11-18T05:23:03;9.00;99.90
2955;DHT22;1487;51.470;6.938;2022-11-18T05:25:30;9.10;99.90
2955;DHT22;1487;51.470;6.938;2022-11-18T05:27:58;9.10;99.90
2955;DHT22;1487;51.470;6.938;2022-11-18T05:30:25;9.20;99.90
2955;DHT22;1487;51.470;6.938;2022-11-18T05:32:52;9.20;99.90
2955;DHT22;1487;51.470;6.938;2022-11-18T05:35:18;9.20;99.90
2955;DHT22;1487;51.470;6.938;2022-11-18T05:37:45;9.20;99.90
2955;DHT22;1487;51.470;6.938;2022-11-18T05:40:12;9.10;99.90
2955;DHT22;1487;51.470;6.938;2022-11-18T05:42:39;9.10;99.90
2955;DHT22;1487;51.470;6.938;2022-11-18T05:45:24;9.10;99.90
2955;DHT22;1487;51.470;6.938;2022-11-18T05:47:51;9.10;99.90
2955;DHT22;1487;51.470;6.938;2022-11-18T05:50:29;9.10;99.90
2955;DHT22;1487;51.470;6.938;2022-11-18T05:52:56;9.10;99.90
2955;DHT22;1487;51.470;6.938;2022-11-18T05:55:26;9.10;99.90
2955;DHT22;1487;51.470;6.938;2022-11-18T05:57:53;9.00;99.90
2955;DHT22;1487;51.470;6.938;2022-11-18T06:00:20;9.00;99.90
2955;DHT22;1487;51.470;6.938;2022-11-18T06:02:50;8.90;99.90
2955;DHT22;1487;51.470;6.938;2022-11-18T06:05:19;9.00;99.90
2955;DHT22;1487;51.470;6.938;2022-11-18T06:07:47;9.00;99.90
2955;DHT22;1487;51.470;6.938;2022-11-18T06:10:18;8.90;99.90
2955;DHT22;1487;51.470;6.938;2022-11-18T06:12:48;8.90;99.90
2955;DHT22;1487;51.470;6.938;2022-11-18T06:15:18;8.90;99.90
2955;DHT22;1487;51.470;6.938;2022-11-18T06:17:52;8.90;99.90
2955;DHT22;1487;51.470;6.938;2022-11-18T06:20:20;8.90;99.90
2955;DHT22;1487;51.470;6.938;2022-11-18T06:22:50;8.90;99.90
2955;DHT22;1487;51.470;6.938;2022-11-18T06:25:17;8.90;99.90
2955;DHT22;1487;51.470;6.938;2022-11-18T06:27:45;8.80;99.90
2955;DHT22;1487;51.470;6.938;2022-11-18T06:30:13;8.80;99.90
2955;DHT22;1487;51.470;6.938;2022-11-18T06:32:40;8.70;99.90
2955;DHT22;1487;51.470;6.938;2022-11-18T06:35:09;8.70;99.90
2955;DHT22;1487;51.470;6.938;2022-11-18T06:37:36;8.70;99.90
2955;DHT22;1487;51.470;6.938;2022-11-18T06:40:03;8.60;99.90
2955;DHT22;1487;51.470;6.938;2022-11-18T06:42:30;8.60;99.90
2955;DHT22;1487;51.470;6.938;2022-11-18T06:45:14;8.70;99.90
2955;DHT22;1487;51.470;6.938;2022-11-18T06:47:41;8.70;99.90
2955;DHT22;1487;51.470;6.938;2022-11-18T06:50:09;8.70;99.90
2955;DHT22;1487;51.470;6.938;2022-11-18T06:52:36;8.60;99.90
2955;DHT22;1487;51.470;6.938;2022-11-18T06:55:04;8.60;99.90
2955;DHT22;1487;51.470;6.938;2022-11-18T06:57:32;8.60;99.90
2955;DHT22;1487;51.470;6.938;2022-11-18T06:59:59;8.70;99.90
2955;DHT22;1487;51.470;6.938;2022-11-18T07:02:26;8.70;99.90
2955;DHT22;1487;51.470;6.938;2022-11-18T07:04:53;8.70;99.90
2955;DHT22;1487;51.470;6.938;2022-11-18T07:07:21;8.70;99.90
2955;DHT22;1487;51.470;6.938;2022-11-18T07:09:48;8.80;99.90
2955;DHT22;1487;51.470;6.938;2022-11-18T07:12:15;8.80;99.90
2955;DHT22;1487;51.470;6.938;2022-11-18T07:14:42;8.90;99.90
2955;DHT22;1487;51.470;6.938;2022-11-18T07:17:08;8.90;99.90
2955;DHT22;1487;51.470;6.938;2022-11-18T07:19:35;8.90;99.90
2955;DHT22;1487;51.470;6.938;2022-11-18T07:22:02;8.90;99.90
2955;DHT22;1487;51.470;6.938;2022-11-18T07:24:30;8.90;99.90
2955;DHT22;1487;51.470;6.938;2022-11-18T07:26:57;9.00;99.90
2955;DHT22;1487;51.470;6.938;2022-11-18T07:29:24;9.00;99.90
2955;DHT22;1487;51.470;6.938;2022-11-18T07:31:51;9.00;99.90
2955;DHT22;1487;51.470;6.938;2022-11-18T07:34:17;9.10;99.90
2955;DHT22;1487;51.470;6.938;2022-11-18T07:36:44;9.10;99.90
2955;DHT22;1487;51.470;6.938;2022-11-18T07:39:11;9.10;99.90
2955;DHT22;1487;51.470;6.938;2022-11-18T07:41:40;9.10;99.90
2955;DHT22;1487;51.470;6.938;2022-11-18T07:44:10;9.20;99.90
2955;DHT22;1487;51.470;6.938;2022-11-18T07:46:37;9.20;99.90
2955;DHT22;1487;51.470;6.938;2022-11-18T07:49:06;9.20;99.90
2955;DHT22;1487;51.470;6.938;2022-11-18T07:51:35;9.30;99.90
2955;DHT22;1487;51.470;6.938;2022-11-18T07:54:05;9.30;99.90
2955;DHT22;1487;51.470;6.938;2022-11-18T07:56:32;9.20;99.90
2955;DHT22;1487;51.470;6.938;2022-11-18T07:59:00;9.20;99.90
2955;DHT22;1487;51.470;6.938;2022-11-18T08:01:27;9.20;99.90
2955;DHT22;1487;51.470;6.938;2022-11-18T08:03:55;9.20;99.90
2955;DHT22;1487;51.470;6.938;2022-11-18T08:06:22;9.20;99.90
2955;DHT22;1487;51.470;6.938;2022-11-18T08:08:49;9.20;99.90
2955;DHT22;1487;51.470;6.938;2022-11-18T08:11:17;9.20;99.90
2955;DHT22;1487;51.470;6.938;2022-11-18T08:13:45;9.30;99.90
2955;DHT22;1487;51.470;6.938;2022-11-18T08:16:14;9.30;99.90
2955;DHT22;1487;51.470;6.938;2022-11-18T08:18:42;9.40;99.90
2955;DHT22;1487;51.470;6.938;2022-11-18T08:21:09;9.50;99.90
2955;DHT22;1487;51.470;6.938;2022-11-18T08:23:36;9.70;99.90
2955;DHT22;1487;51.470;6.938;2022-11-18T08:26:04;9.90;99.90
2955;DHT22;1487;51.470;6.938;2022-11-18T08:28:32;9.90;99.90
2955;DHT22;1487;51.470;6.938;2022-11-18T08:30:59;10.10;99.90
2955;DHT22;1487;51.470;6.938;2022-11-18T08:33:27;10.40;99.90
2955;DHT22;1487;51.470;6.938;2022-11-18T08:35:54;10.50;99.90
2955;DHT22;1487;51.470;6.938;2022-11-18T08:38:21;10.50;99.90
2955;DHT22;1487;51.470;6.938;2022-11-18T08:40:47;10.40;99.90
2955;DHT22;1487;51.470;6.938;2022-11-18T08:43:14;10.20;99.90
2955;DHT22;1487;51.470;6.938;2022-11-18T08:45:41;10.20;99.90
2955;DHT22;1487;51.470;6.938;2022-11-18T08:48:08;10.10;99.90
2955;DHT22;1487;51.470;6.938;2022-11-18T08:50:36;10.00;99.90
2955;DHT22;1487;51.470;6.938;2022-11-18T08:53:03;10.00;99.90
2955;DHT22;1487;51.470;6.938;2022-11-18T08:55:30;10.00;99.90
2955;DHT22;1487;51.470;6.938;2022-11-18T08:57:56;10.00;99.90
2955;DHT22;1487;51.470;6.938;2022-11-18T09:00:23;10.00;99.90
2955;DHT22;1487;51.470;6.938;2022-11-18T09:02:50;9.90;99.90
2955;DHT22;1487;51.470;6.938;2022-11-18T09:05:17;9.90;99.90
2955;DHT22;1487;51.470;6.938;2022-11-18T09:07:45;9.90;99.90
2955;DHT22;1487;51.470;6.938;2022-11-18T09:10:12;9.90;99.90
2955;DHT22;1487;51.470;6.938;2022-11-18T09:12:40;9.90;99.90
2955;DHT22;1487;51.470;6.938;2022-11-18T09:15:07;9.90;99.90
2955;DHT22;1487;51.470;6.938;2022-11-18T09:17:34;9.90;99.90
2955;DHT22;1487;51.470;6.938;2022-11-18T09:20:01;9.90;99.90
2955;DHT22;1487;51.470;6.938;2022-11-18T09:22:28;9.90;99.90
2955;DHT22;1487;51.470;6.938;2022-11-18T09:24:56;9.90;99.90
2955;DHT22;1487;51.470;6.938;2022-11-18T09:27:23;9.90;99.90
2955;DHT22;1487;51.470;6.938;2022-11-18T09:29:49;9.90;99.90
2955;DHT22;1487;51.470;6.938;2022-11-18T09:32:16;10.00;99.90
2955;DHT22;1487;51.470;6.938;2022-11-18T09:34:44;10.00;99.90
2955;DHT22;1487;51.470;6.938;2022-11-18T09:37:11;10.10;99.90
2955;DHT22;1487;51.470;6.938;2022-11-18T09:39:37;10.30;99.90
2955;DHT22;1487;51.470;6.938;2022-11-18T09:42:18;10.40;99.90
2955;DHT22;1487;51.470;6.938;2022-11-18T09:44:56;10.60;99.90
2955;DHT22;1487;51.470;6.938;2022-11-18T09:47:26;10.80;99.90
2955;DHT22;1487;51.470;6.938;2022-11-18T09:49:56;11.00;99.90
2955;DHT22;1487;51.470;6.938;2022-11-18T09:52:26;11.10;99.90
2955;DHT22;1487;51.470;6.938;2022-11-18T09:54:53;11.10;99.90
2955;DHT22;1487;51.470;6.938;2022-11-18T09:57:24;11.10;99.90
2955;DHT22;1487;51.470;6.938;2022-11-18T09:59:51;11.10;99.90
2955;DHT22;1487;51.470;6.938;2022-11-18T10:02:40;11.10;99.90
2955;DHT22;1487;51.470;6.938;2022-11-18T10:05:15;11.10;99.90
2955;DHT22;1487;51.470;6.938;2022-11-18T10:07:53;11.30;99.90
2955;DHT22;1487;51.470;6.938;2022-11-18T10:10:26;11.40;99.90
2955;DHT22;1487;51.470;6.938;2022-11-18T10:13:02;11.60;99.90
2955;DHT22;1487;51.470;6.938;2022-11-18T10:15:34;11.70;99.90
2955;DHT22;1487;51.470;6.938;2022-11-18T10:18:13;11.90;99.90
2955;DHT22;1487;51.470;6.938;2022-11-18T10:20:50;12.00;99.90
2955;DHT22;1487;51.470;6.938;2022-11-18T10:23:25;12.40;99.90
2955;DHT22;1487;51.470;6.938;2022-11-18T10:25:54;12.90;99.90
2955;DHT22;1487;51.470;6.938;2022-11-18T10:28:24;13.30;99.90
2955;DHT22;1487;51.470;6.938;2022-11-18T10:31:02;13.70;99.90
2955;DHT22;1487;51.470;6.938;2022-11-18T10:33:30;13.90;99.90
2955;DHT22;1487;51.470;6.938;2022-11-18T10:36:24;14.00;99.90
2955;DHT22;1487;51.470;6.938;2022-11-18T10:39:14;13.80;99.90
2955;DHT22;1487;51.470;6.938;2022-11-18T10:41:44;13.40;99.90
2955;DHT22;1487;51.470;6.938;2022-11-18T10:44:34;13.30;99.90
2955;DHT22;1487;51.470;6.938;2022-11-18T10:49:57;13.30;99.90
2955;DHT22;1487;51.470;6.938;2022-11-18T10:52:25;13.30;99.90
2955;DHT22;1487;51.470;6.938;2022-11-18T10:57:52;13.20;99.90
2955;DHT22;1487;51.470;6.938;2022-11-18T11:00:40;13.20;99.90
2955;DHT22;1487;51.470;6.938;2022-11-18T11:03:30;13.30;99.90
2955;DHT22;1487;51.470;6.938;2022-11-18T11:06:27;13.10;99.90
2955;DHT22;1487;51.470;6.938;2022-11-18T11:08:56;12.80;99.90
2955;DHT22;1487;51.470;6.938;2022-11-18T11:11:25;12.60;99.90
2955;DHT22;1487;51.470;6.938;2022-11-18T11:14:13;12.40;99.90
2955;DHT22;1487;51.470;6.938;2022-11-18T11:16:47;12.10;99.90
2955;DHT22;1487;51.470;6.938;2022-11-18T11:19:18;12.00;99.90
2955;DHT22;1487;51.470;6.938;2022-11-18T11:21:46;11.90;99.90
2955;DHT22;1487;51.470;6.938;2022-11-18T11:24:13;11.90;99.90
2955;DHT22;1487;51.470;6.938;2022-11-18T11:26:47;11.90;99.90
2955;DHT22;1487;51.470;6.938;2022-11-18T11:29:30;12.10;99.90
2955;DHT22;1487;51.470;6.938;2022-11-18T11:32:08;12.20;99.90
2955;DHT22;1487;51.470;6.938;2022-11-18T11:34:42;12.50;99.90
2955;DHT22;1487;51.470;6.938;2022-11-18T11:37:21;12.80;99.90
2955;DHT22;1487;51.470;6.938;2022-11-18T11:39:59;12.90;99.90
2955;DHT22;1487;51.470;6.938;2022-11-18T11:42:38;13.00;99.90
2955;DHT22;1487;51.470;6.938;2022-11-18T11:45:16;13.10;99.90
2955;DHT22;1487;51.470;6.938;2022-11-18T11:48:06;13.20;99.90
2955;DHT22;1487;51.470;6.938;2022-11-18T11:50:40;13.20;99.90
2955;DHT22;1487;51.470;6.938;2022-11-18T11:53:24;13.30;99.90
2955;DHT22;1487;51.470;6.938;2022-11-18T11:56:03;13.30;99.90
2955;DHT22;1487;51.470;6.938;2022-11-18T11:58:49;13.00;99.90
2955;DHT22;1487;51.470;6.938;2022-11-18T12:01:28;12.70;99.90
2955;DHT22;1487;51.470;6.938;2022-11-18T12:04:07;12.60;99.90
2955;DHT22;1487;51.470;6.938;2022-11-18T12:06:38;12.60;99.90
2955;DHT22;1487;51.470;6.938;2022-11-18T12:09:12;12.80;99.90
2955;DHT22;1487;51.470;6.938;2022-11-18T12:11:44;13.10;99.90
2955;DHT22;1487;51.470;6.938;2022-11-18T12:14:24;13.20;99.90
2955;DHT22;1487;51.470;6.938;2022-11-18T12:16:59;13.20;99.90
2955;DHT22;1487;51.470;6.938;2022-11-18T12:19:28;13.00;99.90
2955;DHT22;1487;51.470;6.938;2022-11-18T12:21:59;12.90;99.90
2955;DHT22;1487;51.470;6.938;2022-11-18T12:24:38;12.60;99.90
2955;DHT22;1487;51.470;6.938;2022-11-18T12:27:11;12.40;99.90
2955;DHT22;1487;51.470;6.938;2022-11-18T12:29:53;12.40;99.90
2955;DHT22;1487;51.470;6.938;2022-11-18T12:32:32;12.50;99.90
2955;DHT22;1487;51.470;6.938;2022-11-18T12:35:10;12.60;99.90
2955;DHT22;1487;51.470;6.938;2022-11-18T12:37:58;12.70;99.90
2955;DHT22;1487;51.470;6.938;2022-11-18T12:40:36;12.70;99.90
2955;DHT22;1487;51.470;6.938;2022-11-18T12:43:05;12.70;99.90
2955;DHT22;1487;51.470;6.938;2022-11-18T12:45:54;12.60;99.90
2955;DHT22;1487;51.470;6.938;2022-11-18T12:48:36;12.60;99.90
2955;DHT22;1487;51.470;6.938;2022-11-18T12:54:24;12.80;99.90
2955;DHT22;1487;51.470;6.938;2022-11-18T12:56:53;13.00;99.90
2955;DHT22;1487;51.470;6.938;2022-11-18T12:59:36;13.00;99.90
2955;DHT22;1487;51.470;6.938;2022-11-18T13:02:16;13.10;99.90
2955;DHT22;1487;51.470;6.938;2022-11-18T13:04:43;13.10;99.90
2955;DHT22;1487;51.470;6.938;2022-11-18T13:07:11;13.10;99.90
2955;DHT22;1487;51.470;6.938;2022-11-18T13:10:01;13.30;99.90
2955;DHT22;1487;51.470;6.938;2022-11-18T13:12:37;13.30;99.90
2955;DHT22;1487;51.470;6.938;2022-11-18T13:15:09;13.10;99.90
2955;DHT22;1487;51.470;6.938;2022-11-18T13:18:05;13.00;99.90
2955;DHT22;1487;51.470;6.938;2022-11-18T13:20:34;13.00;99.90
2955;DHT22;1487;51.470;6.938;2022-11-18T13:23:25;13.10;99.90
2955;DHT22;1487;51.470;6.938;2022-11-18T13:26:13;13.10;99.90
2955;DHT22;1487;51.470;6.938;2022-11-18T13:28:45;13.10;99.90
2955;DHT22;1487;51.470;6.938;2022-11-18T13:31:20;13.00;99.90
2955;DHT22;1487;51.470;6.938;2022-11-18T13:33:51;13.00;99.90
2955;DHT22;1487;51.470;6.938;2022-11-18T13:36:20;13.00;99.90
2955;DHT22;1487;51.470;6.938;2022-11-18T13:38:54;13.10;99.90
2955;DHT22;1487;51.470;6.938;2022-11-18T13:41:24;13.20;99.90
2955;DHT22;1487;51.470;6.938;2022-11-18T13:44:09;13.20;99.90
2955;DHT22;1487;51.470;6.938;2022-11-18T13:46:38;13.10;99.90
2955;DHT22;1487;51.470;6.938;2022-11-18T13:49:05;13.20;99.90
2955;DHT22;1487;51.470;6.938;2022-11-18T13:51:32;13.30;99.90
2955;DHT22;1487;51.470;6.938;2022-11-18T13:53:59;13.40;99.90
2955;DHT22;1487;51.470;6.938;2022-11-18T13:56:28;13.70;99.90
2955;DHT22;1487;51.470;6.938;2022-11-18T13:58:58;13.90;99.90
2955;DHT22;1487;51.470;6.938;2022-11-18T14:01:27;14.10;99.90
2955;DHT22;1487;51.470;6.938;2022-11-18T14:03:58;14.10;99.90
2955;DHT22;1487;51.470;6.938;2022-11-18T14:06:27;14.20;99.90
2955;DHT22;1487;51.470;6.938;2022-11-18T14:09:05;14.20;99.90
2955;DHT22;1487;51.470;6.938;2022-11-18T14:11:38;14.20;99.90
2955;DHT22;1487;51.470;6.938;2022-11-18T14:14:05;14.20;99.90
2955;DHT22;1487;51.470;6.938;2022-11-18T14:16:35;13.90;99.90
2955;DHT22;1487;51.470;6.938;2022-11-18T14:19:03;13.50;99.90
2955;DHT22;1487;51.470;6.938;2022-11-18T14:21:31;13.10;99.90
2955;DHT22;1487;51.470;6.938;2022-11-18T14:23:59;12.90;99.90
2955;DHT22;1487;51.470;6.938;2022-11-18T14:26:27;12.70;99.90
2955;DHT22;1487;51.470;6.938;2022-11-18T14:28:57;12.60;99.90
2955;DHT22;1487;51.470;6.938;2022-11-18T14:31:25;12.50;99.90
2955;DHT22;1487;51.470;6.938;2022-11-18T14:34:16;12.40;99.90
2955;DHT22;1487;51.470;6.938;2022-11-18T14:36:43;12.30;99.90
2955;DHT22;1487;51.470;6.938;2022-11-18T14:39:20;12.10;99.90
2955;DHT22;1487;51.470;6.938;2022-11-18T14:41:47;12.00;99.90
2955;DHT22;1487;51.470;6.938;2022-11-18T14:44:16;11.90;99.90
2955;DHT22;1487;51.470;6.938;2022-11-18T14:46:46;11.70;99.90
2955;DHT22;1487;51.470;6.938;2022-11-18T14:49:15;11.50;99.90
2955;DHT22;1487;51.470;6.938;2022-11-18T14:51:42;11.40;99.90
2955;DHT22;1487;51.470;6.938;2022-11-18T14:54:11;11.30;99.90
2955;DHT22;1487;51.470;6.938;2022-11-18T14:56:40;11.20;99.90
2955;DHT22;1487;51.470;6.938;2022-11-18T14:59:08;11.10;99.90
2955;DHT22;1487;51.470;6.938;2022-11-18T15:01:37;11.10;99.90
2955;DHT22;1487;51.470;6.938;2022-11-18T15:04:04;11.00;99.90
2955;DHT22;1487;51.470;6.938;2022-11-18T15:06:31;10.80;99.90
2955;DHT22;1487;51.470;6.938;2022-11-18T15:08:57;10.70;99.90
2955;DHT22;1487;51.470;6.938;2022-11-18T15:11:24;10.60;99.90
2955;DHT22;1487;51.470;6.938;2022-11-18T15:13:51;10.60;99.90
2955;DHT22;1487;51.470;6.938;2022-11-18T15:16:19;10.50;99.90
2955;DHT22;1487;51.470;6.938;2022-11-18T15:18:50;10.40;99.90
2955;DHT22;1487;51.470;6.938;2022-11-18T15:21:17;10.30;99.90
2955;DHT22;1487;51.470;6.938;2022-11-18T15:23:44;10.20;99.90
2955;DHT22;1487;51.470;6.938;2022-11-18T15:26:16;10.10;99.90
2955;DHT22;1487;51.470;6.938;2022-11-18T15:28:44;10.10;99.90
2955;DHT22;1487;51.470;6.938;2022-11-18T15:31:11;10.00;99.90
2955;DHT22;1487;51.470;6.938;2022-11-18T15:33:38;10.00;99.90
2955;DHT22;1487;51.470;6.938;2022-11-18T15:36:09;9.90;99.90
2955;DHT22;1487;51.470;6.938;2022-11-18T15:38:37;9.80;99.90
2955;DHT22;1487;51.470;6.938;2022-11-18T15:41:04;9.70;99.90
2955;DHT22;1487;51.470;6.938;2022-11-18T15:43:31;9.60;99.90
2955;DHT22;1487;51.470;6.938;2022-11-18T15:45:58;9.60;99.90
2955;DHT22;1487;51.470;6.938;2022-11-18T15:48:25;9.40;99.90
2955;DHT22;1487;51.470;6.938;2022-11-18T15:50:52;9.40;99.90
2955;DHT22;1487;51.470;6.938;2022-11-18T15:53:20;9.30;99.90
2955;DHT22;1487;51.470;6.938;2022-11-18T15:55:46;9.20;99.90
2955;DHT22;1487;51.470;6.938;2022-11-18T15:58:13;9.10;99.90
2955;DHT22;1487;51.470;6.938;2022-11-18T16:00:40;9.10;99.90
2955;DHT22;1487;51.470;6.938;2022-11-18T16:03:12;9.10;99.90
2955;DHT22;1487;51.470;6.938;2022-11-18T16:05:39;9.00;99.90
2955;DHT22;1487;51.470;6.938;2022-11-18T16:08:05;8.90;99.90
2955;DHT22;1487;51.470;6.938;2022-11-18T16:10:34;8.90;99.90
2955;DHT22;1487;51.470;6.938;2022-11-18T16:13:19;8.80;99.90
2955;DHT22;1487;51.470;6.938;2022-11-18T16:15:46;8.80;99.90
2955;DHT22;1487;51.470;6.938;2022-11-18T16:18:14;8.80;99.90
2955;DHT22;1487;51.470;6.938;2022-11-18T16:20:42;8.80;99.90
2955;DHT22;1487;51.470;6.938;2022-11-18T16:23:09;8.60;99.90
2955;DHT22;1487;51.470;6.938;2022-11-18T16:25:42;8.60;99.90
2955;DHT22;1487;51.470;6.938;2022-11-18T16:28:09;8.50;99.90
2955;DHT22;1487;51.470;6.938;2022-11-18T16:30:36;8.40;99.90
2955;DHT22;1487;51.470;6.938;2022-11-18T16:33:20;8.30;99.90
2955;DHT22;1487;51.470;6.938;2022-11-18T16:35:47;8.30;99.90
2955;DHT22;1487;51.470;6.938;2022-11-18T16:38:14;8.30;99.90
2955;DHT22;1487;51.470;6.938;2022-11-18T16:40:42;8.20;99.90
2955;DHT22;1487;51.470;6.938;2022-11-18T16:43:10;8.10;99.90
2955;DHT22;1487;51.470;6.938;2022-11-18T16:45:36;8.00;99.90